Time;durP1;ratioP1;P1;durP2;ratioP2;P2;SDS_P1;SDS_P2;PMS_P1;PMS_P2;Temp;Humidity;BMP_temperature;BMP_pressure;BME280_temperature;BME280_humidity;BME280_pressure;Samples;Min_cycle;Max_cycle;Signal;HPM_P1;HPM_P2
2021/12/17 00:04:53;;;;;;;51.87;17.60;;;;;;;;;;5032886;28;20359;-75
2021/12/17 00:07:20;;;;;;;43.73;16.67;;;;;;;;;;5033134;28;20660;-75
2021/12/17 00:09:47;;;;;;;55.50;17.70;;;;;;;;;;5032762;28;20786;-75
2021/12/17 00:12:14;;;;;;;44.83;17.63;;;;;;;;;;5032677;28;20355;-75
2021/12/17 00:14:42;;;;;;;41.77;16.90;;;;;;;;;;5032866;28;20292;-75
2021/12/17 00:17:12;;;;;;;40.33;16.73;;;;;;;;;;5032676;28;20280;-75
2021/12/17 00:49:28;;;;;;;42.42;16.92;;;;;;;;;;5021718;28;20288;-75
2021/12/17 00:52:02;;;;;;;36.13;16.80;;;;;;;;;;5038933;28;20132;-75
2021/12/17 00:54:35;;;;;;;43.30;17.80;;;;;;;;;;5039208;28;20303;-75
2021/12/17 00:57:11;;;;;;;45.17;18.13;;;;;;;;;;5039052;28;20280;-75
2021/12/17 00:59:37;;;;;;;35.30;16.73;;;;;;;;;;5039203;28;20309;-75
2021/12/17 01:02:06;;;;;;;38.23;17.10;;;;;;;;;;5038799;28;20292;-75
2021/12/17 01:04:33;;;;;;;33.80;16.00;;;;;;;;;;5039152;28;20350;-75
2021/12/17 01:06:59;;;;;;;42.53;18.00;;;;;;;;;;5038700;28;20339;-75
2021/12/17 01:09:26;;;;;;;50.00;19.17;;;;;;;;;;5039365;28;20446;-75
2021/12/17 01:11:53;;;;;;;36.90;17.03;;;;;;;;;;5021648;28;20288;-75
2021/12/17 01:14:20;;;;;;;40.50;17.77;;;;;;;;;;5021075;28;20311;-74
2021/12/17 01:16:47;;;;;;;30.40;16.13;;;;;;;;;;5039004;28;20284;-74
2021/12/17 01:24:47;;;;;;;32.95;16.92;;;;;;;;;;5038715;28;20334;-75
2021/12/17 01:35:29;;;;;;;31.05;16.17;;;;;;;;;;5038918;28;20056;-75
2021/12/17 01:43:37;;;;;;;32.70;16.63;;;;;;;;;;5021573;28;20300;-75
2021/12/17 01:46:05;;;;;;;29.77;15.87;;;;;;;;;;5038450;28;20049;-75
2021/12/17 01:48:48;;;;;;;28.03;15.43;;;;;;;;;;5038726;28;20288;-75
2021/12/17 01:56:59;;;;;;;32.47;14.77;;;;;;;;;;5035780;28;20057;-74
2021/12/17 01:59:36;;;;;;;25.77;14.80;;;;;;;;;;5035554;28;20084;-75
2021/12/17 02:02:05;;;;;;;24.77;14.20;;;;;;;;;;5035249;28;20872;-75
2021/12/17 02:04:32;;;;;;;27.10;14.23;;;;;;;;;;5035348;28;20276;-75
2021/12/17 02:06:59;;;;;;;34.63;16.23;;;;;;;;;;5035376;28;20334;-74
2021/12/17 02:31:43;;;;;;;26.37;14.60;;;;;;;;;;5003844;28;20284;-74
2021/12/17 02:35:05;;;;;;;30.47;15.03;;;;;;;;;;5034444;28;20318;-74
2021/12/17 02:37:00;;;;;;;31.10;16.40;;;;;;;;;;5023726;28;20320;-74
2021/12/17 02:48:07;;;;;;;31.93;15.43;;;;;;;;;;5034667;28;20064;-74
2021/12/17 02:50:38;;;;;;;21.97;13.83;;;;;;;;;;5035007;28;20272;-74
2021/12/17 02:53:07;;;;;;;30.87;15.93;;;;;;;;;;5034520;28;20780;-74
2021/12/17 02:55:33;;;;;;;23.37;14.30;;;;;;;;;;5034497;28;20299;-74
2021/12/17 02:58:00;;;;;;;28.03;14.67;;;;;;;;;;5034380;28;20290;-74
2021/12/17 03:00:26;;;;;;;32.77;15.47;;;;;;;;;;5034129;28;20280;-74
2021/12/17 03:02:52;;;;;;;27.90;14.13;;;;;;;;;;5033992;28;20280;-74
2021/12/17 03:05:19;;;;;;;24.97;14.00;;;;;;;;;;5033985;28;20280;-75
2021/12/17 03:07:47;;;;;;;23.03;14.40;;;;;;;;;;5034381;28;20323;-74
2021/12/17 03:10:15;;;;;;;25.43;14.57;;;;;;;;;;5033845;28;20280;-75
2021/12/17 03:12:48;;;;;;;30.73;16.73;;;;;;;;;;5034101;28;20284;-74
2021/12/17 03:15:34;;;;;;;25.47;14.23;;;;;;;;;;5033783;28;20330;-75
2021/12/17 03:23:52;;;;;;;26.47;15.27;;;;;;;;;;5033817;28;20422;-74
2021/12/17 03:26:15;;;;;;;30.80;16.00;;;;;;;;;;5030267;28;20386;-74
2021/12/17 03:28:42;;;;;;;30.23;15.80;;;;;;;;;;5033849;28;20291;-74
2021/12/17 03:31:09;;;;;;;29.53;14.97;;;;;;;;;;5033675;28;20362;-75
2021/12/17 03:33:36;;;;;;;37.73;17.53;;;;;;;;;;5033643;28;20303;-74
2021/12/17 03:36:03;;;;;;;44.00;18.50;;;;;;;;;;5033779;28;20280;-74
2021/12/17 03:38:29;;;;;;;34.50;15.90;;;;;;;;;;5033349;28;20280;-74
2021/12/17 03:41:39;;;;;;;26.87;14.43;;;;;;;;;;5033546;28;20284;-74
2021/12/17 03:43:45;;;;;;;46.07;17.87;;;;;;;;;;5025455;28;20633;-74
2021/12/17 03:46:11;;;;;;;38.50;17.30;;;;;;;;;;5015755;28;20288;-75
2021/12/17 03:48:39;;;;;;;33.30;15.57;;;;;;;;;;5015833;28;20330;-74
2021/12/17 03:51:11;;;;;;;32.33;16.07;;;;;;;;;;5033507;28;20294;-74
2021/12/17 03:53:37;;;;;;;32.00;16.47;;;;;;;;;;5033390;28;20307;-74
2021/12/17 03:56:03;;;;;;;32.60;16.23;;;;;;;;;;5033327;28;20667;-74
2021/12/17 03:58:29;;;;;;;29.90;16.40;;;;;;;;;;5033046;28;20359;-74
2021/12/17 04:00:55;;;;;;;37.00;17.37;;;;;;;;;;5015556;28;20792;-74
2021/12/17 04:03:22;;;;;;;26.30;14.60;;;;;;;;;;5032969;28;20272;-74
2021/12/17 04:05:48;;;;;;;27.40;16.00;;;;;;;;;;5033193;28;20366;-74
2021/12/17 04:08:14;;;;;;;29.60;16.10;;;;;;;;;;5032911;28;20276;-75
2021/12/17 04:10:44;;;;;;;28.07;15.13;;;;;;;;;;5033469;28;20623;-75
2021/12/17 04:16:07;;;;;;;32.47;16.07;;;;;;;;;;5015941;28;20293;-74
2021/12/17 04:18:33;;;;;;;38.87;17.30;;;;;;;;;;5032802;28;20302;-74
2021/12/17 04:21:01;;;;;;;35.40;16.40;;;;;;;;;;5033121;28;20304;-74
2021/12/17 04:23:27;;;;;;;39.63;15.67;;;;;;;;;;5033024;28;20289;-75
2021/12/17 04:25:53;;;;;;;46.17;16.23;;;;;;;;;;5032932;28;20295;-75
2021/12/17 04:28:20;;;;;;;43.57;17.13;;;;;;;;;;5032550;28;20287;-75
2021/12/17 04:30:46;;;;;;;31.63;16.13;;;;;;;;;;5015427;28;20640;-75
2021/12/17 04:33:13;;;;;;;36.23;16.63;;;;;;;;;;5032851;28;20354;-75
2021/12/17 04:35:40;;;;;;;48.23;18.50;;;;;;;;;;5032523;28;20288;-75
2021/12/17 04:38:08;;;;;;;68.47;20.13;;;;;;;;;;5032871;28;20645;-75
2021/12/17 04:40:36;;;;;;;57.87;20.30;;;;;;;;;;5032480;28;20284;-75
2021/12/17 04:46:38;;;;;;;74.70;19.88;;;;;;;;;;5032770;28;20287;-75
2021/12/17 04:59:33;;;;;;;38.58;17.42;;;;;;;;;;5032488;28;20053;-75
2021/12/17 05:02:01;;;;;;;38.67;17.03;;;;;;;;;;5032291;28;20501;-75
2021/12/17 05:04:28;;;;;;;35.43;18.00;;;;;;;;;;5032301;28;20280;-75
2021/12/17 05:06:54;;;;;;;31.33;15.50;;;;;;;;;;5015203;28;20636;-74
2021/12/17 05:09:33;;;;;;;52.53;17.70;;;;;;;;;;5032095;28;20284;-74
2021/12/17 05:19:58;;;;;;;30.55;16.10;;;;;;;;;;5032432;28;20051;-74
2021/12/17 05:22:27;;;;;;;34.23;17.07;;;;;;;;;;5014513;28;20142;-75
2021/12/17 05:24:54;;;;;;;51.07;17.57;;;;;;;;;;5033252;28;20295;-75
2021/12/17 05:27:20;;;;;;;23.03;14.73;;;;;;;;;;5036249;28;20304;-75
2021/12/17 05:29:46;;;;;;;26.70;15.10;;;;;;;;;;5036228;28;20292;-75
2021/12/17 05:32:12;;;;;;;34.37;15.87;;;;;;;;;;5018474;28;20820;-75
2021/12/17 05:34:38;;;;;;;33.70;17.30;;;;;;;;;;5035701;28;20387;-74
2021/12/17 05:37:05;;;;;;;41.77;17.77;;;;;;;;;;5036193;28;20633;-74
2021/12/17 05:39:31;;;;;;;40.70;17.17;;;;;;;;;;5035657;28;20283;-75
2021/12/17 05:41:57;;;;;;;43.73;16.17;;;;;;;;;;5018225;28;20437;-75
2021/12/17 05:44:24;;;;;;;33.27;16.20;;;;;;;;;;5035526;28;20280;-75
2021/12/17 05:46:50;;;;;;;48.13;18.23;;;;;;;;;;5035570;28;20625;-75
2021/12/17 05:49:18;;;;;;;43.07;17.17;;;;;;;;;;5035649;28;20295;-75
2021/12/17 05:51:44;;;;;;;47.93;18.07;;;;;;;;;;5035443;28;20744;-75
2021/12/17 05:54:10;;;;;;;62.53;18.87;;;;;;;;;;5018149;28;20664;-75
2021/12/17 05:56:36;;;;;;;108.80;23.30;;;;;;;;;;5035266;28;20284;-75
2021/12/17 05:59:02;;;;;;;49.67;18.93;;;;;;;;;;5035205;28;20760;-75
2021/12/17 06:01:29;;;;;;;50.80;17.90;;;;;;;;;;5035163;28;20352;-75
2021/12/17 06:03:55;;;;;;;48.33;17.53;;;;;;;;;;5035338;28;20762;-75
2021/12/17 06:06:31;;;;;;;39.00;17.70;;;;;;;;;;5035343;28;20422;-75
2021/12/17 06:08:57;;;;;;;54.13;18.87;;;;;;;;;;5035437;28;20316;-75
2021/12/17 06:11:23;;;;;;;42.50;18.13;;;;;;;;;;5035074;28;20851;-75
2021/12/17 06:13:50;;;;;;;42.57;17.87;;;;;;;;;;5035455;28;20292;-75
2021/12/17 06:16:16;;;;;;;31.07;15.50;;;;;;;;;;5035118;28;20276;-75
2021/12/17 06:18:42;;;;;;;45.67;18.13;;;;;;;;;;5034887;28;20352;-75
2021/12/17 06:21:08;;;;;;;36.77;17.20;;;;;;;;;;5017467;28;20276;-75
2021/12/17 06:23:34;;;;;;;35.37;16.93;;;;;;;;;;5034307;28;20292;-75
2021/12/17 06:26:00;;;;;;;27.57;14.93;;;;;;;;;;5035088;28;20350;-74
2021/12/17 06:28:26;;;;;;;27.13;15.23;;;;;;;;;;5034776;28;20276;-75
2021/12/17 06:30:53;;;;;;;48.13;17.63;;;;;;;;;;5034992;28;20831;-75
2021/12/17 06:33:19;;;;;;;43.30;17.40;;;;;;;;;;5034792;28;20379;-74
2021/12/17 06:35:45;;;;;;;33.67;16.67;;;;;;;;;;5034286;28;20320;-75
2021/12/17 06:38:11;;;;;;;45.77;17.90;;;;;;;;;;5034371;28;20355;-75
2021/12/17 06:40:37;;;;;;;28.13;14.20;;;;;;;;;;5034370;28;20280;-75
2021/12/17 06:43:03;;;;;;;27.60;14.67;;;;;;;;;;5034566;28;20284;-74
2021/12/17 06:45:46;;;;;;;29.60;15.60;;;;;;;;;;5034437;28;20324;-75
2021/12/17 06:48:12;;;;;;;29.27;15.47;;;;;;;;;;5034872;28;20363;-74
2021/12/17 07:18:02;;;;;;;31.38;14.77;;;;;;;;;;5033909;28;20284;-75
2021/12/17 07:28:35;;;;;;;25.48;12.55;;;;;;;;;;5033600;28;20743;-75
2021/12/17 07:33:40;;;;;;;28.20;12.70;;;;;;;;;;5033728;28;20318;-75
2021/12/17 07:36:10;;;;;;;22.87;12.13;;;;;;;;;;5034057;28;20360;-75
2021/12/17 07:38:50;;;;;;;21.10;11.27;;;;;;;;;;5033425;28;20276;-75
2021/12/17 07:41:17;;;;;;;29.30;12.63;;;;;;;;;;5016312;28;20292;-75
2021/12/17 07:43:54;;;;;;;34.33;14.10;;;;;;;;;;5033180;28;20359;-75
2021/12/17 07:46:21;;;;;;;21.60;11.17;;;;;;;;;;5033605;28;20281;-75
2021/12/17 07:48:47;;;;;;;36.17;13.67;;;;;;;;;;5032188;28;20280;-75
2021/12/17 07:51:15;;;;;;;24.40;11.57;;;;;;;;;;5015806;28;20280;-75
2021/12/17 07:53:41;;;;;;;27.20;12.70;;;;;;;;;;5033059;28;20304;-75
2021/12/17 07:56:08;;;;;;;27.20;12.60;;;;;;;;;;5033340;28;20288;-75
2021/12/17 07:58:35;;;;;;;27.17;12.30;;;;;;;;;;5033308;28;20363;-75
2021/12/17 08:01:01;;;;;;;23.63;11.90;;;;;;;;;;5033244;28;20312;-75
2021/12/17 08:03:27;;;;;;;24.63;11.80;;;;;;;;;;5033189;28;20280;-76
2021/12/17 08:05:54;;;;;;;21.90;11.53;;;;;;;;;;5032971;28;20307;-74
2021/12/17 08:08:21;;;;;;;24.97;11.97;;;;;;;;;;5033196;28;20280;-75
2021/12/17 08:10:47;;;;;;;24.80;11.97;;;;;;;;;;5032669;28;20798;-75
2021/12/17 08:13:20;;;;;;;22.37;11.40;;;;;;;;;;5032942;28;20371;-74
2021/12/17 08:16:00;;;;;;;23.10;11.23;;;;;;;;;;5032931;28;20284;-74
2021/12/17 08:31:31;;;;;;;32.97;12.87;;;;;;;;;;4993544;28;20273;-74
2021/12/17 08:33:57;;;;;;;30.53;12.50;;;;;;;;;;4993112;28;20297;-73
2021/12/17 08:36:24;;;;;;;32.20;12.93;;;;;;;;;;4993503;28;20281;-74
2021/12/17 08:38:50;;;;;;;29.40;12.67;;;;;;;;;;4993187;28;20289;-76
2021/12/17 08:41:18;;;;;;;27.83;12.80;;;;;;;;;;4993334;28;20773;-74
2021/12/17 08:43:44;;;;;;;29.13;13.60;;;;;;;;;;4992741;28;20774;-74
2021/12/17 08:46:10;;;;;;;28.03;12.77;;;;;;;;;;4993444;28;20416;-74
2021/12/17 08:48:37;;;;;;;26.53;12.87;;;;;;;;;;4993330;28;20317;-74
2021/12/17 08:51:06;;;;;;;28.07;12.73;;;;;;;;;;4992921;28;20273;-74
2021/12/17 08:53:32;;;;;;;23.50;11.63;;;;;;;;;;4992306;28;20312;-74
2021/12/17 08:55:58;;;;;;;25.77;11.30;;;;;;;;;;4992926;28;20364;-73
2021/12/17 08:58:25;;;;;;;26.53;11.53;;;;;;;;;;4993315;28;20366;-74
2021/12/17 09:00:51;;;;;;;26.93;12.00;;;;;;;;;;4994826;28;20286;-74
2021/12/17 09:03:17;;;;;;;29.57;12.50;;;;;;;;;;4997205;28;20324;-74
2021/12/17 09:05:44;;;;;;;29.17;13.43;;;;;;;;;;4996840;28;20346;-74
2021/12/17 09:08:11;;;;;;;31.00;12.90;;;;;;;;;;4997038;28;20289;-73
2021/12/17 09:10:37;;;;;;;27.13;12.60;;;;;;;;;;4997033;28;20773;-73
2021/12/17 09:13:05;;;;;;;27.45;11.55;;;;;;;;;;4996632;28;20320;-74
2021/12/17 09:15:31;;;;;;;28.17;12.77;;;;;;;;;;4997078;28;20277;-74
2021/12/17 09:17:58;;;;;;;26.97;12.30;;;;;;;;;;4996287;28;20788;-74
2021/12/17 09:20:24;;;;;;;29.30;12.90;;;;;;;;;;4996961;28;20320;-73
2021/12/17 09:22:50;;;;;;;26.97;12.10;;;;;;;;;;5018312;28;20608;-73
2021/12/17 09:25:16;;;;;;;24.10;11.23;;;;;;;;;;5036027;28;20727;-73
2021/12/17 09:27:42;;;;;;;33.77;13.30;;;;;;;;;;5036183;28;20287;-73
2021/12/17 09:30:10;;;;;;;27.77;12.07;;;;;;;;;;5035392;28;20806;-72
2021/12/17 09:32:39;;;;;;;21.87;11.03;;;;;;;;;;5035902;28;20315;-74
2021/12/17 09:35:05;;;;;;;22.77;11.77;;;;;;;;;;5035585;28;21293;-72
2021/12/17 09:37:31;;;;;;;26.03;11.90;;;;;;;;;;5035965;28;20675;-72
2021/12/17 09:39:58;;;;;;;23.13;11.77;;;;;;;;;;5017869;28;20640;-72
2021/12/17 09:42:25;;;;;;;25.60;11.20;;;;;;;;;;5035933;28;20280;-72
2021/12/17 09:44:51;;;;;;;27.73;12.33;;;;;;;;;;5018168;28;20331;-73
2021/12/17 09:47:17;;;;;;;33.27;12.93;;;;;;;;;;5036125;28;20395;-73
2021/12/17 09:49:43;;;;;;;28.00;12.20;;;;;;;;;;5035869;28;20280;-73
2021/12/17 09:52:09;;;;;;;29.97;12.10;;;;;;;;;;5035509;28;20359;-72
2021/12/17 09:54:36;;;;;;;24.93;11.83;;;;;;;;;;5035985;28;20306;-73
2021/12/17 09:57:02;;;;;;;24.97;11.77;;;;;;;;;;5035573;28;20331;-72
2021/12/17 09:59:28;;;;;;;24.27;11.50;;;;;;;;;;5035728;28;20369;-72
2021/12/17 10:01:55;;;;;;;23.07;11.77;;;;;;;;;;5035363;28;20288;-72
2021/12/17 10:04:28;;;;;;;28.10;12.53;;;;;;;;;;5035519;28;20359;-72
2021/12/17 10:07:14;;;;;;;24.53;11.70;;;;;;;;;;5035243;28;20787;-72
2021/12/17 10:09:45;;;;;;;20.73;10.80;;;;;;;;;;5035630;28;20285;-71
2021/12/17 10:12:11;;;;;;;25.20;11.50;;;;;;;;;;5034146;28;20363;-72
2021/12/17 10:14:40;;;;;;;25.53;12.07;;;;;;;;;;5035181;28;20296;-72
2021/12/17 10:17:07;;;;;;;24.47;11.50;;;;;;;;;;5017593;28;20380;-72
2021/12/17 10:19:50;;;;;;;24.80;11.70;;;;;;;;;;5035441;28;20276;-73
2021/12/17 10:22:18;;;;;;;25.63;11.70;;;;;;;;;;5035024;28;20288;-72
2021/12/17 10:24:59;;;;;;;26.73;12.57;;;;;;;;;;5035275;28;20273;-73
2021/12/17 10:27:28;;;;;;;26.97;12.20;;;;;;;;;;5034732;28;20789;-73
2021/12/17 10:29:55;;;;;;;32.03;13.67;;;;;;;;;;5034737;28;20841;-74
2021/12/17 10:32:22;;;;;;;30.57;12.87;;;;;;;;;;5035038;28;20280;-73
2021/12/17 10:35:01;;;;;;;27.93;12.27;;;;;;;;;;5034857;28;20300;-72
2021/12/17 10:37:38;;;;;;;26.20;12.50;;;;;;;;;;5034967;28;20280;-73
2021/12/17 10:40:18;;;;;;;27.07;12.20;;;;;;;;;;5034579;28;20295;-73
2021/12/17 10:42:53;;;;;;;25.13;11.40;;;;;;;;;;5017337;28;20288;-73
2021/12/17 10:45:28;;;;;;;26.58;11.48;;;;;;;;;;5035007;28;20269;-73
2021/12/17 10:48:21;;;;;;;27.13;11.57;;;;;;;;;;5034543;28;20049;-75
2021/12/17 10:50:49;;;;;;;28.80;12.07;;;;;;;;;;5034731;28;20272;-72
2021/12/17 10:53:16;;;;;;;30.63;12.10;;;;;;;;;;5034148;28;20289;-72
2021/12/17 10:55:46;;;;;;;27.67;12.63;;;;;;;;;;5017201;28;20295;-74
2021/12/17 10:58:12;;;;;;;26.33;12.50;;;;;;;;;;5016460;28;20326;-73
2021/12/17 11:00:47;;;;;;;28.33;12.37;;;;;;;;;;5034424;28;20288;-71
2021/12/17 11:03:14;;;;;;;27.23;11.65;;;;;;;;;;5034082;28;20326;-72
2021/12/17 11:05:40;;;;;;;30.93;12.50;;;;;;;;;;5034392;28;20052;-72
2021/12/17 11:08:18;;;;;;;28.90;11.67;;;;;;;;;;5033876;28;20383;-74
2021/12/17 11:10:55;;;;;;;25.50;11.20;;;;;;;;;;5024390;28;20656;-74
2021/12/17 11:13:21;;;;;;;26.47;11.63;;;;;;;;;;5010962;28;20347;-73
2021/12/17 11:15:48;;;;;;;22.43;11.00;;;;;;;;;;5028658;28;20283;-78
2021/12/17 11:18:14;;;;;;;24.30;11.37;;;;;;;;;;5011107;28;20296;-73
2021/12/17 11:20:41;;;;;;;27.33;11.53;;;;;;;;;;5010922;28;20303;-75
2021/12/17 11:23:11;;;;;;;22.00;10.67;;;;;;;;;;5023400;28;20313;-73
2021/12/17 11:25:39;;;;;;;25.27;11.43;;;;;;;;;;5008324;28;20311;-75
2021/12/17 11:28:07;;;;;;;25.10;11.00;;;;;;;;;;5013897;28;20606;-72
2021/12/17 11:30:34;;;;;;;28.17;11.80;;;;;;;;;;5028136;28;20276;-72
2021/12/17 11:33:02;;;;;;;21.10;10.57;;;;;;;;;;5025679;28;20288;-72
2021/12/17 11:35:29;;;;;;;21.37;9.80;;;;;;;;;;5025060;28;20370;-79
2021/12/17 11:37:57;;;;;;;21.83;10.63;;;;;;;;;;5021007;28;20373;-73
2021/12/17 11:40:25;;;;;;;33.47;12.10;;;;;;;;;;5017015;28;20390;-78
2021/12/17 11:43:02;;;;;;;18.13;9.00;;;;;;;;;;4992024;28;21268;-80
2021/12/17 11:45:29;;;;;;;16.40;8.83;;;;;;;;;;5018828;28;20288;-72
2021/12/17 11:48:16;;;;;;;18.37;9.80;;;;;;;;;;5033530;28;20280;-74
2021/12/17 11:50:42;;;;;;;17.73;9.50;;;;;;;;;;5016130;28;20289;-72
2021/12/17 11:53:22;;;;;;;15.37;8.87;;;;;;;;;;5033100;28;20283;-73
2021/12/17 11:55:55;;;;;;;23.10;9.97;;;;;;;;;;5033489;28;20272;-77
2021/12/17 11:58:41;;;;;;;17.40;8.53;;;;;;;;;;5015756;28;20339;-73
2021/12/17 12:01:08;;;;;;;17.27;9.00;;;;;;;;;;5033074;28;20287;-74
2021/12/17 12:03:34;;;;;;;12.20;7.90;;;;;;;;;;5015719;28;20368;-74
2021/12/17 12:06:00;;;;;;;10.80;7.70;;;;;;;;;;5033272;28;20316;-73
2021/12/17 12:08:28;;;;;;;11.37;8.27;;;;;;;;;;5033243;28;20295;-74
2021/12/17 12:11:07;;;;;;;14.07;9.10;;;;;;;;;;5033257;28;20371;-73
2021/12/17 12:13:34;;;;;;;11.90;8.03;;;;;;;;;;5033445;28;20322;-74
2021/12/17 12:16:04;;;;;;;14.60;9.30;;;;;;;;;;5015625;28;20356;-74
2021/12/17 12:18:53;;;;;;;11.90;8.40;;;;;;;;;;5033182;28;20598;-74
2021/12/17 12:21:21;;;;;;;10.13;8.57;;;;;;;;;;5025132;28;20324;-74
2021/12/17 12:23:49;;;;;;;10.90;8.50;;;;;;;;;;5033053;28;20338;-74
2021/12/17 12:26:17;;;;;;;12.20;9.40;;;;;;;;;;5032680;28;20326;-75
2021/12/17 12:29:05;;;;;;;11.77;8.97;;;;;;;;;;5032735;28;20787;-74
2021/12/17 12:31:34;;;;;;;10.17;8.80;;;;;;;;;;5033246;28;20276;-75
2021/12/17 12:36:47;;;;;;;13.27;9.70;;;;;;;;;;5032724;28;20370;-75
2021/12/17 12:39:19;;;;;;;13.90;9.68;;;;;;;;;;5014936;28;20280;-75
2021/12/17 12:42:01;;;;;;;14.00;9.53;;;;;;;;;;5033041;28;20099;-76
2021/12/17 12:44:47;;;;;;;13.43;8.60;;;;;;;;;;4999048;28;20296;-75
2021/12/17 12:47:16;;;;;;;10.90;8.23;;;;;;;;;;5001478;28;20288;-75
2021/12/17 12:49:45;;;;;;;11.43;7.83;;;;;;;;;;5015497;28;20288;-75
2021/12/17 12:52:31;;;;;;;9.20;6.97;;;;;;;;;;5032492;28;20284;-77
2021/12/17 12:55:05;;;;;;;10.98;7.85;;;;;;;;;;5032729;28;20384;-75
2021/12/17 12:57:34;;;;;;;10.40;7.50;;;;;;;;;;5032557;28;20048;-75
2021/12/17 13:00:05;;;;;;;11.30;8.07;;;;;;;;;;5032880;28;20679;-73
2021/12/17 13:02:31;;;;;;;10.73;8.57;;;;;;;;;;5032599;28;20272;-74
2021/12/17 13:04:59;;;;;;;12.80;9.53;;;;;;;;;;5032691;28;20352;-74
2021/12/17 13:07:35;;;;;;;10.50;8.07;;;;;;;;;;5032370;28;20272;-75
2021/12/17 13:10:27;;;;;;;15.07;8.27;;;;;;;;;;5032496;28;20284;-75
2021/12/17 13:12:54;;;;;;;13.43;7.87;;;;;;;;;;5028091;28;21022;-76
2021/12/17 13:21:17;;;;;;;11.20;8.23;;;;;;;;;;5032694;28;20284;-75
2021/12/17 13:23:49;;;;;;;10.73;8.13;;;;;;;;;;5014870;28;20111;-75
2021/12/17 13:26:15;;;;;;;11.10;8.00;;;;;;;;;;5032311;28;20287;-76
2021/12/17 13:28:53;;;;;;;7.60;6.50;;;;;;;;;;5032496;28;20327;-75
2021/12/17 13:31:32;;;;;;;8.33;6.83;;;;;;;;;;5032220;28;20287;-75
2021/12/17 13:33:58;;;;;;;9.20;6.90;;;;;;;;;;5015036;28;20392;-75
2021/12/17 13:36:24;;;;;;;8.20;6.60;;;;;;;;;;5031882;28;20370;-80
2021/12/17 13:38:57;;;;;;;8.57;6.67;;;;;;;;;;5032338;28;20410;-77
2021/12/17 13:41:34;;;;;;;9.87;7.07;;;;;;;;;;5032367;28;20618;-76
2021/12/17 13:44:00;;;;;;;8.87;6.43;;;;;;;;;;5032283;28;20272;-75
2021/12/17 13:46:29;;;;;;;8.40;6.97;;;;;;;;;;5034029;28;20283;-76
2021/12/17 13:48:55;;;;;;;10.27;7.20;;;;;;;;;;5035623;28;20792;-76
2021/12/17 13:51:21;;;;;;;9.73;7.60;;;;;;;;;;5035921;28;20593;-76
2021/12/17 13:53:48;;;;;;;9.33;7.50;;;;;;;;;;5001725;28;20387;-76
2021/12/17 13:56:15;;;;;;;8.83;6.47;;;;;;;;;;5035536;28;20280;-77
2021/12/17 13:58:42;;;;;;;9.57;7.20;;;;;;;;;;5035715;28;20338;-76
2021/12/17 14:01:08;;;;;;;10.53;8.07;;;;;;;;;;5035700;28;20280;-75
2021/12/17 14:03:35;;;;;;;11.90;7.77;;;;;;;;;;5035349;28;20616;-75
2021/12/17 14:06:11;;;;;;;12.20;8.67;;;;;;;;;;5035562;28;20288;-75
2021/12/17 14:08:41;;;;;;;10.77;8.37;;;;;;;;;;5035273;28;20665;-75
2021/12/17 14:11:33;;;;;;;11.20;7.37;;;;;;;;;;5035530;28;20328;-73
2021/12/17 14:14:00;;;;;;;11.50;7.60;;;;;;;;;;5035221;28;20757;-74
2021/12/17 14:16:28;;;;;;;10.37;7.67;;;;;;;;;;5035104;28;20272;-74
2021/12/17 14:18:58;;;;;;;10.53;7.97;;;;;;;;;;5009940;28;20620;-75
2021/12/17 14:21:31;;;;;;;11.03;8.13;;;;;;;;;;5028421;28;20315;-75
2021/12/17 14:23:58;;;;;;;9.43;7.37;;;;;;;;;;5011323;28;20288;-75
2021/12/17 14:26:28;;;;;;;10.33;7.43;;;;;;;;;;5028752;28;20288;-75
2021/12/17 14:28:55;;;;;;;10.87;7.60;;;;;;;;;;5028850;28;20282;-74
2021/12/17 14:31:23;;;;;;;12.03;7.63;;;;;;;;;;5009211;28;20913;-75
2021/12/17 14:33:51;;;;;;;11.60;8.00;;;;;;;;;;5028829;28;20309;-78
2021/12/17 14:36:28;;;;;;;11.03;7.30;;;;;;;;;;5029479;28;20367;-76
2021/12/17 14:39:14;;;;;;;11.03;7.37;;;;;;;;;;5028673;28;20679;-75
2021/12/17 14:41:50;;;;;;;10.20;7.20;;;;;;;;;;5026935;28;20286;-76
2021/12/17 14:44:54;;;;;;;12.47;8.83;;;;;;;;;;5028603;28;20287;-76
2021/12/17 14:47:39;;;;;;;9.33;7.20;;;;;;;;;;5023601;28;20292;-76
2021/12/17 15:01:15;;;;;;;10.30;7.20;;;;;;;;;;5034512;28;20053;-76
2021/12/17 15:03:41;;;;;;;10.32;7.10;;;;;;;;;;5016489;28;20296;-76
2021/12/17 15:06:09;;;;;;;7.40;5.87;;;;;;;;;;5034467;28;20049;-76
2021/12/17 15:08:35;;;;;;;9.13;6.37;;;;;;;;;;5033772;28;20826;-77
2021/12/17 15:11:04;;;;;;;9.63;6.77;;;;;;;;;;5034545;28;20280;-76
2021/12/17 15:13:31;;;;;;;9.33;6.80;;;;;;;;;;5033997;28;20372;-77
2021/12/17 15:15:57;;;;;;;10.03;7.30;;;;;;;;;;5034418;28;20363;-76
2021/12/17 15:18:24;;;;;;;10.17;6.60;;;;;;;;;;5033899;28;20291;-80
2021/12/17 15:20:51;;;;;;;9.77;6.77;;;;;;;;;;5034184;28;20290;-76
2021/12/17 15:23:18;;;;;;;10.17;6.93;;;;;;;;;;5034151;28;20361;-76
2021/12/17 15:25:45;;;;;;;10.03;7.43;;;;;;;;;;5033607;28;20879;-77
2021/12/17 15:28:13;;;;;;;8.20;6.43;;;;;;;;;;5016501;28;20338;-76
2021/12/17 15:30:40;;;;;;;10.60;6.63;;;;;;;;;;5016296;28;20826;-76
2021/12/17 15:33:07;;;;;;;12.97;6.90;;;;;;;;;;5033944;28;20276;-75
2021/12/17 15:35:33;;;;;;;10.63;7.20;;;;;;;;;;5033526;28;20300;-76
2021/12/17 15:38:00;;;;;;;10.47;7.07;;;;;;;;;;5033918;28;20284;-76
2021/12/17 15:40:26;;;;;;;9.03;6.93;;;;;;;;;;5033502;28;20280;-78
2021/12/17 15:42:53;;;;;;;12.20;6.93;;;;;;;;;;5015636;28;20343;-77
2021/12/17 15:45:19;;;;;;;13.13;6.90;;;;;;;;;;5033549;28;20291;-77
2021/12/17 15:47:45;;;;;;;11.73;8.03;;;;;;;;;;5032982;28;20841;-77
2021/12/17 15:50:14;;;;;;;11.03;7.10;;;;;;;;;;5033527;28;20283;-77
2021/12/17 15:52:46;;;;;;;10.93;7.70;;;;;;;;;;5015614;28;20288;-77
2021/12/17 15:55:17;;;;;;;13.80;7.93;;;;;;;;;;5033468;28;20303;-76
2021/12/17 15:57:44;;;;;;;10.03;7.43;;;;;;;;;;5032848;28;20284;-76
2021/12/17 16:00:10;;;;;;;10.90;8.77;;;;;;;;;;5033255;28;20421;-76
2021/12/17 16:02:40;;;;;;;13.13;9.10;;;;;;;;;;5032892;28;20276;-79
2021/12/17 16:05:08;;;;;;;9.50;7.43;;;;;;;;;;5033082;28;20676;-74
2021/12/17 16:07:34;;;;;;;10.57;7.27;;;;;;;;;;5032752;28;20280;-74
2021/12/17 16:10:38;;;;;;;12.73;8.20;;;;;;;;;;5032352;28;20355;-74
2021/12/17 16:18:28;;;;;;;11.77;8.90;;;;;;;;;;5032881;28;20280;-78
2021/12/17 16:21:02;;;;;;;9.83;7.73;;;;;;;;;;5033241;28;20083;-77
2021/12/17 16:23:30;;;;;;;13.18;8.63;;;;;;;;;;5032361;28;20304;-80
2021/12/17 16:25:56;;;;;;;14.50;8.60;;;;;;;;;;5032901;28;20068;-77
2021/12/17 16:28:22;;;;;;;12.23;8.13;;;;;;;;;;5015152;28;20288;-77
2021/12/17 16:30:48;;;;;;;13.63;8.83;;;;;;;;;;5014996;28;20363;-75
2021/12/17 16:33:14;;;;;;;14.37;10.37;;;;;;;;;;5032600;28;20287;-74
2021/12/17 16:35:41;;;;;;;12.23;9.73;;;;;;;;;;5014757;28;20304;-78
2021/12/17 16:38:07;;;;;;;13.67;9.50;;;;;;;;;;5032861;28;20354;-78
2021/12/17 16:40:33;;;;;;;14.97;9.77;;;;;;;;;;5032395;28;20327;-79
2021/12/17 16:43:01;;;;;;;11.90;8.73;;;;;;;;;;5032777;28;20284;-78
2021/12/17 16:45:33;;;;;;;14.57;9.67;;;;;;;;;;5015091;28;20296;-77
2021/12/17 16:48:03;;;;;;;14.23;9.10;;;;;;;;;;5033294;28;20338;-78
2021/12/17 16:50:31;;;;;;;13.80;9.10;;;;;;;;;;5014949;28;20299;-78
2021/12/17 16:52:58;;;;;;;17.83;10.33;;;;;;;;;;5032464;28;20280;-78
2021/12/17 16:55:25;;;;;;;15.50;10.70;;;;;;;;;;5032516;28;20296;-79
2021/12/17 16:57:51;;;;;;;15.97;10.87;;;;;;;;;;5032305;28;20319;-78
2021/12/17 17:00:17;;;;;;;17.70;12.23;;;;;;;;;;5037911;28;20290;-79
2021/12/17 17:02:43;;;;;;;17.77;11.50;;;;;;;;;;5024383;28;20640;-82
2021/12/17 17:05:09;;;;;;;14.77;10.90;;;;;;;;;;5042090;28;20287;-78
2021/12/17 17:07:36;;;;;;;14.13;9.80;;;;;;;;;;5006584;28;20291;-80
2021/12/17 17:10:02;;;;;;;15.83;11.30;;;;;;;;;;5002635;28;20729;-81
2021/12/17 17:12:30;;;;;;;18.20;10.93;;;;;;;;;;5033840;28;20668;-82
2021/12/17 17:14:56;;;;;;;16.33;10.77;;;;;;;;;;5025782;28;20304;-76
2021/12/17 17:17:24;;;;;;;13.53;9.67;;;;;;;;;;5027826;28;20760;-79
2021/12/17 17:19:53;;;;;;;15.27;10.93;;;;;;;;;;5026850;28;20292;-83
2021/12/17 17:22:19;;;;;;;15.00;9.10;;;;;;;;;;5036117;28;20367;-83
2021/12/17 17:24:45;;;;;;;15.27;11.00;;;;;;;;;;5035959;28;20284;-81
2021/12/17 17:27:11;;;;;;;16.17;10.00;;;;;;;;;;5036071;28;20306;-81
2021/12/17 17:29:37;;;;;;;16.43;9.90;;;;;;;;;;5035913;28;20276;-79
2021/12/17 17:32:05;;;;;;;14.73;9.97;;;;;;;;;;5036110;28;20295;-81
2021/12/17 17:34:31;;;;;;;15.10;9.90;;;;;;;;;;5035869;28;20307;-81
2021/12/17 17:36:57;;;;;;;17.10;10.47;;;;;;;;;;5018203;28;20362;-82
2021/12/17 17:39:24;;;;;;;19.27;14.27;;;;;;;;;;5035636;28;20833;-82
2021/12/17 17:41:50;;;;;;;19.23;14.70;;;;;;;;;;5035433;28;20284;-80
2021/12/17 17:44:16;;;;;;;18.63;12.17;;;;;;;;;;4995025;28;20289;-79
2021/12/17 17:46:43;;;;;;;27.77;21.73;;;;;;;;;;5028618;28;20363;-80
2021/12/17 17:49:09;;;;;;;29.30;23.20;;;;;;;;;;5029210;28;20288;-82